sensor_id;sensor_type;location;lat;lon;timestamp;P1;durP1;ratioP1;P2;durP2;ratioP2
61709;SDS011;73500;51.494;5.386;2024-02-15T00:00:54;4.53;;;1.50;;
61709;SDS011;73500;51.494;5.386;2024-02-15T00:03:20;2.95;;;1.23;;
61709;SDS011;73500;51.494;5.386;2024-02-15T00:05:46;3.20;;;1.35;;
61709;SDS011;73500;51.494;5.386;2024-02-15T00:08:11;3.58;;;1.30;;
61709;SDS011;73500;51.494;5.386;2024-02-15T00:10:37;3.35;;;1.40;;
61709;SDS011;73500;51.494;5.386;2024-02-15T00:13:02;3.10;;;1.30;;
61709;SDS011;73500;51.494;5.386;2024-02-15T00:15:28;3.15;;;1.30;;
61709;SDS011;73500;51.494;5.386;2024-02-15T00:17:53;4.07;;;1.60;;
61709;SDS011;73500;51.494;5.386;2024-02-15T00:20:19;3.53;;;1.38;;
61709;SDS011;73500;51.494;5.386;2024-02-15T00:22:45;4.55;;;1.30;;
61709;SDS011;73500;51.494;5.386;2024-02-15T00:25:10;3.53;;;1.25;;
61709;SDS011;73500;51.494;5.386;2024-02-15T00:27:36;4.00;;;1.45;;
61709;SDS011;73500;51.494;5.386;2024-02-15T00:30:02;4.40;;;1.60;;
61709;SDS011;73500;51.494;5.386;2024-02-15T00:32:28;3.50;;;1.40;;
61709;SDS011;73500;51.494;5.386;2024-02-15T00:34:53;4.25;;;1.45;;
61709;SDS011;73500;51.494;5.386;2024-02-15T00:37:19;2.90;;;1.30;;
61709;SDS011;73500;51.494;5.386;2024-02-15T00:39:45;2.90;;;1.40;;
61709;SDS011;73500;51.494;5.386;2024-02-15T00:42:11;4.97;;;1.52;;
61709;SDS011;73500;51.494;5.386;2024-02-15T00:44:36;3.47;;;1.40;;
61709;SDS011;73500;51.494;5.386;2024-02-15T00:47:02;3.60;;;1.30;;
61709;SDS011;73500;51.494;5.386;2024-02-15T00:49:27;3.65;;;1.50;;
61709;SDS011;73500;51.494;5.386;2024-02-15T00:51:53;3.55;;;1.20;;
61709;SDS011;73500;51.494;5.386;2024-02-15T00:54:18;4.13;;;1.38;;
61709;SDS011;73500;51.494;5.386;2024-02-15T00:56:43;3.35;;;1.40;;
61709;SDS011;73500;51.494;5.386;2024-02-15T00:59:09;3.38;;;1.45;;
61709;SDS011;73500;51.494;5.386;2024-02-15T01:01:34;4.40;;;1.45;;
61709;SDS011;73500;51.494;5.386;2024-02-15T01:04:02;3.55;;;1.50;;
61709;SDS011;73500;51.494;5.386;2024-02-15T01:06:29;4.53;;;1.65;;
61709;SDS011;73500;51.494;5.386;2024-02-15T01:08:54;3.22;;;1.30;;
61709;SDS011;73500;51.494;5.386;2024-02-15T01:11:19;4.53;;;1.65;;
61709;SDS011;73500;51.494;5.386;2024-02-15T01:13:45;5.05;;;1.20;;
61709;SDS011;73500;51.494;5.386;2024-02-15T01:16:11;3.53;;;1.52;;
61709;SDS011;73500;51.494;5.386;2024-02-15T01:18:36;2.90;;;1.25;;
61709;SDS011;73500;51.494;5.386;2024-02-15T01:21:02;4.15;;;1.55;;
61709;SDS011;73500;51.494;5.386;2024-02-15T01:23:28;4.18;;;1.40;;
61709;SDS011;73500;51.494;5.386;2024-02-15T01:25:54;3.88;;;1.60;;
61709;SDS011;73500;51.494;5.386;2024-02-15T01:28:19;3.83;;;1.52;;
61709;SDS011;73500;51.494;5.386;2024-02-15T01:30:45;3.28;;;1.23;;
61709;SDS011;73500;51.494;5.386;2024-02-15T01:33:11;4.47;;;1.40;;
61709;SDS011;73500;51.494;5.386;2024-02-15T01:35:37;4.43;;;1.40;;
61709;SDS011;73500;51.494;5.386;2024-02-15T01:38:03;4.57;;;1.50;;
61709;SDS011;73500;51.494;5.386;2024-02-15T01:40:28;3.47;;;1.40;;
61709;SDS011;73500;51.494;5.386;2024-02-15T01:42:54;3.75;;;1.40;;
61709;SDS011;73500;51.494;5.386;2024-02-15T01:45:20;4.45;;;1.42;;
61709;SDS011;73500;51.494;5.386;2024-02-15T01:47:46;3.40;;;1.48;;
61709;SDS011;73500;51.494;5.386;2024-02-15T01:50:13;3.97;;;1.63;;
61709;SDS011;73500;51.494;5.386;2024-02-15T01:52:39;3.45;;;1.13;;
61709;SDS011;73500;51.494;5.386;2024-02-15T01:55:05;2.95;;;1.10;;
61709;SDS011;73500;51.494;5.386;2024-02-15T01:57:36;4.38;;;1.40;;
61709;SDS011;73500;51.494;5.386;2024-02-15T02:00:05;4.03;;;1.40;;
61709;SDS011;73500;51.494;5.386;2024-02-15T02:02:33;3.38;;;1.42;;
61709;SDS011;73500;51.494;5.386;2024-02-15T02:05:01;3.53;;;1.38;;
61709;SDS011;73500;51.494;5.386;2024-02-15T02:07:27;3.88;;;1.40;;
61709;SDS011;73500;51.494;5.386;2024-02-15T02:09:52;3.83;;;1.38;;
61709;SDS011;73500;51.494;5.386;2024-02-15T02:12:18;3.83;;;1.40;;
61709;SDS011;73500;51.494;5.386;2024-02-15T02:14:43;4.57;;;1.52;;
61709;SDS011;73500;51.494;5.386;2024-02-15T02:17:12;4.00;;;1.30;;
61709;SDS011;73500;51.494;5.386;2024-02-15T02:19:39;4.10;;;1.50;;
61709;SDS011;73500;51.494;5.386;2024-02-15T02:22:04;3.65;;;1.45;;
61709;SDS011;73500;51.494;5.386;2024-02-15T02:24:30;3.20;;;1.45;;
61709;SDS011;73500;51.494;5.386;2024-02-15T02:27:03;3.40;;;1.30;;
61709;SDS011;73500;51.494;5.386;2024-02-15T02:29:30;4.75;;;1.70;;
61709;SDS011;73500;51.494;5.386;2024-02-15T02:31:56;5.38;;;1.58;;
61709;SDS011;73500;51.494;5.386;2024-02-15T02:34:22;3.60;;;1.40;;
61709;SDS011;73500;51.494;5.386;2024-02-15T02:36:47;4.25;;;1.20;;
61709;SDS011;73500;51.494;5.386;2024-02-15T02:39:13;3.30;;;1.25;;
61709;SDS011;73500;51.494;5.386;2024-02-15T02:41:38;5.18;;;1.55;;
61709;SDS011;73500;51.494;5.386;2024-02-15T02:44:03;3.35;;;1.23;;
61709;SDS011;73500;51.494;5.386;2024-02-15T02:46:29;4.20;;;1.77;;
61709;SDS011;73500;51.494;5.386;2024-02-15T02:48:55;3.97;;;1.50;;
61709;SDS011;73500;51.494;5.386;2024-02-15T02:51:21;4.55;;;1.60;;
61709;SDS011;73500;51.494;5.386;2024-02-15T02:53:46;4.03;;;1.42;;
61709;SDS011;73500;51.494;5.386;2024-02-15T02:56:12;5.43;;;1.50;;
61709;SDS011;73500;51.494;5.386;2024-02-15T02:58:38;3.53;;;1.40;;
61709;SDS011;73500;51.494;5.386;2024-02-15T03:01:07;4.30;;;1.42;;
61709;SDS011;73500;51.494;5.386;2024-02-15T03:03:33;5.03;;;1.40;;
61709;SDS011;73500;51.494;5.386;2024-02-15T03:05:58;3.95;;;1.48;;
61709;SDS011;73500;51.494;5.386;2024-02-15T03:08:24;5.20;;;1.60;;
61709;SDS011;73500;51.494;5.386;2024-02-15T03:10:49;3.83;;;1.50;;
61709;SDS011;73500;51.494;5.386;2024-02-15T03:13:16;4.38;;;1.60;;
61709;SDS011;73500;51.494;5.386;2024-02-15T03:15:44;4.85;;;1.67;;
61709;SDS011;73500;51.494;5.386;2024-02-15T03:18:12;3.67;;;1.40;;
61709;SDS011;73500;51.494;5.386;2024-02-15T03:20:39;5.03;;;1.52;;
61709;SDS011;73500;51.494;5.386;2024-02-15T03:23:05;4.38;;;1.70;;
61709;SDS011;73500;51.494;5.386;2024-02-15T03:25:30;4.45;;;1.33;;
61709;SDS011;73500;51.494;5.386;2024-02-15T03:27:56;3.63;;;1.42;;
61709;SDS011;73500;51.494;5.386;2024-02-15T03:30:27;4.22;;;1.67;;
61709;SDS011;73500;51.494;5.386;2024-02-15T03:32:56;4.88;;;1.40;;
61709;SDS011;73500;51.494;5.386;2024-02-15T03:35:22;3.47;;;1.23;;
61709;SDS011;73500;51.494;5.386;2024-02-15T03:37:49;5.20;;;1.60;;
61709;SDS011;73500;51.494;5.386;2024-02-15T03:40:17;5.32;;;1.60;;
61709;SDS011;73500;51.494;5.386;2024-02-15T03:42:46;4.80;;;1.60;;
61709;SDS011;73500;51.494;5.386;2024-02-15T03:45:11;3.80;;;1.60;;
61709;SDS011;73500;51.494;5.386;2024-02-15T03:47:37;4.65;;;1.27;;
61709;SDS011;73500;51.494;5.386;2024-02-15T03:50:02;4.10;;;1.50;;
61709;SDS011;73500;51.494;5.386;2024-02-15T03:52:29;4.85;;;1.38;;
61709;SDS011;73500;51.494;5.386;2024-02-15T03:54:56;5.40;;;1.90;;
61709;SDS011;73500;51.494;5.386;2024-02-15T03:57:25;4.65;;;1.27;;
61709;SDS011;73500;51.494;5.386;2024-02-15T03:59:50;5.70;;;1.70;;
61709;SDS011;73500;51.494;5.386;2024-02-15T04:02:17;6.60;;;1.40;;
61709;SDS011;73500;51.494;5.386;2024-02-15T04:04:43;3.60;;;1.45;;
61709;SDS011;73500;51.494;5.386;2024-02-15T04:07:11;5.13;;;1.52;;
61709;SDS011;73500;51.494;5.386;2024-02-15T04:09:37;3.08;;;1.30;;
61709;SDS011;73500;51.494;5.386;2024-02-15T04:12:02;5.03;;;1.60;;
61709;SDS011;73500;51.494;5.386;2024-02-15T04:14:28;6.18;;;1.77;;
61709;SDS011;73500;51.494;5.386;2024-02-15T04:16:53;3.45;;;1.30;;
61709;SDS011;73500;51.494;5.386;2024-02-15T04:19:18;3.33;;;1.48;;
61709;SDS011;73500;51.494;5.386;2024-02-15T04:21:45;4.00;;;1.42;;
61709;SDS011;73500;51.494;5.386;2024-02-15T04:24:11;3.05;;;1.30;;
61709;SDS011;73500;51.494;5.386;2024-02-15T04:26:37;3.85;;;1.40;;
61709;SDS011;73500;51.494;5.386;2024-02-15T04:29:03;3.35;;;1.35;;
61709;SDS011;73500;51.494;5.386;2024-02-15T04:31:29;4.32;;;1.40;;
61709;SDS011;73500;51.494;5.386;2024-02-15T04:33:54;2.85;;;1.17;;
61709;SDS011;73500;51.494;5.386;2024-02-15T04:36:21;3.97;;;1.30;;
61709;SDS011;73500;51.494;5.386;2024-02-15T04:38:50;3.33;;;1.17;;
61709;SDS011;73500;51.494;5.386;2024-02-15T04:41:17;3.20;;;1.33;;
61709;SDS011;73500;51.494;5.386;2024-02-15T04:43:48;4.10;;;1.67;;
61709;SDS011;73500;51.494;5.386;2024-02-15T04:46:17;4.85;;;1.58;;
61709;SDS011;73500;51.494;5.386;2024-02-15T04:48:42;4.43;;;1.40;;
61709;SDS011;73500;51.494;5.386;2024-02-15T04:51:08;4.72;;;1.40;;
61709;SDS011;73500;51.494;5.386;2024-02-15T04:53:35;3.75;;;1.50;;
61709;SDS011;73500;51.494;5.386;2024-02-15T04:56:01;3.97;;;1.35;;
61709;SDS011;73500;51.494;5.386;2024-02-15T04:58:31;4.82;;;1.23;;
61709;SDS011;73500;51.494;5.386;2024-02-15T05:00:58;4.10;;;1.52;;
61709;SDS011;73500;51.494;5.386;2024-02-15T05:03:24;2.92;;;1.40;;
61709;SDS011;73500;51.494;5.386;2024-02-15T05:05:49;3.72;;;1.23;;
61709;SDS011;73500;51.494;5.386;2024-02-15T05:08:15;4.68;;;1.27;;
61709;SDS011;73500;51.494;5.386;2024-02-15T05:10:41;5.97;;;1.10;;
61709;SDS011;73500;51.494;5.386;2024-02-15T05:13:06;4.80;;;1.10;;
61709;SDS011;73500;51.494;5.386;2024-02-15T05:15:31;2.08;;;1.02;;
61709;SDS011;73500;51.494;5.386;2024-02-15T05:17:58;5.20;;;1.73;;
61709;SDS011;73500;51.494;5.386;2024-02-15T05:20:23;3.78;;;1.10;;
61709;SDS011;73500;51.494;5.386;2024-02-15T05:22:50;4.72;;;1.17;;
61709;SDS011;73500;51.494;5.386;2024-02-15T05:25:15;4.28;;;1.30;;
61709;SDS011;73500;51.494;5.386;2024-02-15T05:27:41;4.30;;;1.45;;
61709;SDS011;73500;51.494;5.386;2024-02-15T05:30:08;3.03;;;1.17;;
61709;SDS011;73500;51.494;5.386;2024-02-15T05:32:34;4.78;;;1.30;;
61709;SDS011;73500;51.494;5.386;2024-02-15T05:35:08;3.17;;;1.10;;
61709;SDS011;73500;51.494;5.386;2024-02-15T05:37:35;5.20;;;1.80;;
61709;SDS011;73500;51.494;5.386;2024-02-15T05:40:00;3.92;;;1.13;;
61709;SDS011;73500;51.494;5.386;2024-02-15T05:42:25;5.45;;;1.70;;
61709;SDS011;73500;51.494;5.386;2024-02-15T05:44:52;5.10;;;1.52;;
61709;SDS011;73500;51.494;5.386;2024-02-15T05:47:17;4.00;;;1.27;;
61709;SDS011;73500;51.494;5.386;2024-02-15T05:49:42;4.35;;;1.50;;
61709;SDS011;73500;51.494;5.386;2024-02-15T05:52:08;4.18;;;1.50;;
61709;SDS011;73500;51.494;5.386;2024-02-15T05:54:35;3.50;;;1.20;;
61709;SDS011;73500;51.494;5.386;2024-02-15T05:57:01;2.88;;;1.20;;
61709;SDS011;73500;51.494;5.386;2024-02-15T05:59:27;3.78;;;1.30;;
61709;SDS011;73500;51.494;5.386;2024-02-15T06:01:52;4.03;;;1.20;;
61709;SDS011;73500;51.494;5.386;2024-02-15T06:04:18;4.15;;;1.30;;
61709;SDS011;73500;51.494;5.386;2024-02-15T06:06:43;3.50;;;1.33;;
61709;SDS011;73500;51.494;5.386;2024-02-15T06:09:08;4.47;;;1.20;;
61709;SDS011;73500;51.494;5.386;2024-02-15T06:11:34;3.08;;;1.13;;
61709;SDS011;73500;51.494;5.386;2024-02-15T06:14:00;2.88;;;1.25;;
61709;SDS011;73500;51.494;5.386;2024-02-15T06:16:26;3.75;;;1.52;;
61709;SDS011;73500;51.494;5.386;2024-02-15T06:18:51;3.63;;;1.27;;
61709;SDS011;73500;51.494;5.386;2024-02-15T06:21:17;2.88;;;1.13;;
61709;SDS011;73500;51.494;5.386;2024-02-15T06:23:43;3.63;;;1.23;;
61709;SDS011;73500;51.494;5.386;2024-02-15T06:26:08;3.72;;;1.60;;
61709;SDS011;73500;51.494;5.386;2024-02-15T06:28:33;3.25;;;1.00;;
61709;SDS011;73500;51.494;5.386;2024-02-15T06:31:17;3.55;;;1.17;;
61709;SDS011;73500;51.494;5.386;2024-02-15T06:34:01;2.67;;;1.25;;
61709;SDS011;73500;51.494;5.386;2024-02-15T06:36:49;3.47;;;1.10;;
61709;SDS011;73500;51.494;5.386;2024-02-15T06:39:34;3.10;;;1.08;;
61709;SDS011;73500;51.494;5.386;2024-02-15T06:42:12;4.68;;;1.45;;
61709;SDS011;73500;51.494;5.386;2024-02-15T06:44:41;3.50;;;1.20;;
61709;SDS011;73500;51.494;5.386;2024-02-15T06:47:07;2.67;;;1.00;;
61709;SDS011;73500;51.494;5.386;2024-02-15T06:49:35;3.85;;;1.00;;
61709;SDS011;73500;51.494;5.386;2024-02-15T06:52:01;3.95;;;1.38;;
61709;SDS011;73500;51.494;5.386;2024-02-15T06:54:27;2.72;;;1.10;;
61709;SDS011;73500;51.494;5.386;2024-02-15T06:56:53;2.38;;;1.10;;
61709;SDS011;73500;51.494;5.386;2024-02-15T06:59:19;3.17;;;1.40;;
61709;SDS011;73500;51.494;5.386;2024-02-15T07:01:47;3.72;;;1.50;;
61709;SDS011;73500;51.494;5.386;2024-02-15T07:04:14;3.03;;;1.00;;
61709;SDS011;73500;51.494;5.386;2024-02-15T07:06:39;2.63;;;1.05;;
61709;SDS011;73500;51.494;5.386;2024-02-15T07:09:05;2.50;;;0.80;;
61709;SDS011;73500;51.494;5.386;2024-02-15T07:11:32;2.83;;;1.10;;
61709;SDS011;73500;51.494;5.386;2024-02-15T07:13:59;2.42;;;0.93;;
61709;SDS011;73500;51.494;5.386;2024-02-15T07:16:25;3.15;;;1.00;;
61709;SDS011;73500;51.494;5.386;2024-02-15T07:18:50;3.03;;;1.17;;
61709;SDS011;73500;51.494;5.386;2024-02-15T07:21:15;4.00;;;1.17;;
61709;SDS011;73500;51.494;5.386;2024-02-15T07:23:42;2.45;;;0.88;;
61709;SDS011;73500;51.494;5.386;2024-02-15T07:26:07;3.17;;;1.10;;
61709;SDS011;73500;51.494;5.386;2024-02-15T07:28:33;2.38;;;0.90;;
61709;SDS011;73500;51.494;5.386;2024-02-15T07:30:59;2.88;;;0.90;;
61709;SDS011;73500;51.494;5.386;2024-02-15T07:33:27;2.30;;;0.85;;
61709;SDS011;73500;51.494;5.386;2024-02-15T07:35:53;3.63;;;1.23;;
61709;SDS011;73500;51.494;5.386;2024-02-15T07:38:19;3.22;;;1.10;;
61709;SDS011;73500;51.494;5.386;2024-02-15T07:40:47;1.88;;;0.93;;
61709;SDS011;73500;51.494;5.386;2024-02-15T07:43:13;3.08;;;0.90;;
61709;SDS011;73500;51.494;5.386;2024-02-15T07:45:39;3.00;;;1.10;;
61709;SDS011;73500;51.494;5.386;2024-02-15T07:48:04;3.15;;;1.27;;
61709;SDS011;73500;51.494;5.386;2024-02-15T07:50:30;3.75;;;1.02;;
61709;SDS011;73500;51.494;5.386;2024-02-15T07:52:55;3.22;;;1.20;;
61709;SDS011;73500;51.494;5.386;2024-02-15T07:55:21;2.83;;;1.00;;
61709;SDS011;73500;51.494;5.386;2024-02-15T07:57:47;3.60;;;1.00;;
61709;SDS011;73500;51.494;5.386;2024-02-15T08:00:13;2.17;;;0.90;;
61709;SDS011;73500;51.494;5.386;2024-02-15T08:02:41;3.35;;;1.02;;
61709;SDS011;73500;51.494;5.386;2024-02-15T08:05:07;2.88;;;1.25;;
61709;SDS011;73500;51.494;5.386;2024-02-15T08:07:36;3.22;;;1.02;;
61709;SDS011;73500;51.494;5.386;2024-02-15T08:10:10;2.67;;;1.00;;
61709;SDS011;73500;51.494;5.386;2024-02-15T08:12:40;2.85;;;1.00;;
61709;SDS011;73500;51.494;5.386;2024-02-15T08:15:06;3.05;;;1.17;;
61709;SDS011;73500;51.494;5.386;2024-02-15T08:17:37;2.50;;;0.90;;
61709;SDS011;73500;51.494;5.386;2024-02-15T08:20:04;2.25;;;0.80;;
61709;SDS011;73500;51.494;5.386;2024-02-15T08:22:32;2.55;;;1.00;;
61709;SDS011;73500;51.494;5.386;2024-02-15T08:24:58;2.83;;;0.82;;
61709;SDS011;73500;51.494;5.386;2024-02-15T08:27:24;3.67;;;0.90;;
61709;SDS011;73500;51.494;5.386;2024-02-15T08:29:49;2.47;;;1.02;;
61709;SDS011;73500;51.494;5.386;2024-02-15T08:32:14;3.35;;;1.17;;
61709;SDS011;73500;51.494;5.386;2024-02-15T08:34:40;3.78;;;1.15;;
61709;SDS011;73500;51.494;5.386;2024-02-15T08:37:05;2.90;;;1.00;;
61709;SDS011;73500;51.494;5.386;2024-02-15T08:39:31;3.97;;;1.27;;
61709;SDS011;73500;51.494;5.386;2024-02-15T08:41:57;3.42;;;1.00;;
61709;SDS011;73500;51.494;5.386;2024-02-15T08:44:23;2.28;;;0.80;;
61709;SDS011;73500;51.494;5.386;2024-02-15T08:46:49;3.42;;;0.93;;
61709;SDS011;73500;51.494;5.386;2024-02-15T08:49:15;2.58;;;0.88;;
61709;SDS011;73500;51.494;5.386;2024-02-15T08:51:40;3.15;;;1.10;;
61709;SDS011;73500;51.494;5.386;2024-02-15T08:54:05;3.00;;;1.05;;
61709;SDS011;73500;51.494;5.386;2024-02-15T08:56:31;6.75;;;1.20;;
61709;SDS011;73500;51.494;5.386;2024-02-15T08:58:58;3.33;;;1.00;;
61709;SDS011;73500;51.494;5.386;2024-02-15T09:01:24;2.72;;;1.20;;
61709;SDS011;73500;51.494;5.386;2024-02-15T09:03:50;3.83;;;1.20;;
61709;SDS011;73500;51.494;5.386;2024-02-15T09:06:15;2.42;;;1.00;;
61709;SDS011;73500;51.494;5.386;2024-02-15T09:08:40;3.55;;;1.00;;
61709;SDS011;73500;51.494;5.386;2024-02-15T09:11:05;3.63;;;1.02;;
61709;SDS011;73500;51.494;5.386;2024-02-15T09:13:31;3.85;;;1.10;;
61709;SDS011;73500;51.494;5.386;2024-02-15T09:15:58;3.80;;;1.30;;
61709;SDS011;73500;51.494;5.386;2024-02-15T09:18:24;4.20;;;1.20;;
61709;SDS011;73500;51.494;5.386;2024-02-15T09:20:49;3.17;;;1.00;;
61709;SDS011;73500;51.494;5.386;2024-02-15T09:23:20;4.18;;;1.00;;
61709;SDS011;73500;51.494;5.386;2024-02-15T09:25:45;1.70;;;0.82;;
61709;SDS011;73500;51.494;5.386;2024-02-15T09:28:11;2.67;;;1.15;;
61709;SDS011;73500;51.494;5.386;2024-02-15T09:30:36;3.70;;;1.50;;
61709;SDS011;73500;51.494;5.386;2024-02-15T09:33:02;3.28;;;1.27;;
61709;SDS011;73500;51.494;5.386;2024-02-15T09:35:30;4.60;;;1.23;;
61709;SDS011;73500;51.494;5.386;2024-02-15T09:37:56;3.33;;;1.20;;
61709;SDS011;73500;51.494;5.386;2024-02-15T09:40:22;4.95;;;1.15;;
61709;SDS011;73500;51.494;5.386;2024-02-15T09:42:51;3.38;;;1.08;;
61709;SDS011;73500;51.494;5.386;2024-02-15T09:45:18;2.85;;;1.20;;
61709;SDS011;73500;51.494;5.386;2024-02-15T09:47:46;4.30;;;1.00;;
61709;SDS011;73500;51.494;5.386;2024-02-15T09:50:15;2.15;;;0.93;;
61709;SDS011;73500;51.494;5.386;2024-02-15T09:55:11;3.08;;;0.90;;
61709;SDS011;73500;51.494;5.386;2024-02-15T09:57:41;2.65;;;0.90;;
61709;SDS011;73500;51.494;5.386;2024-02-15T10:00:09;3.08;;;1.23;;
61709;SDS011;73500;51.494;5.386;2024-02-15T10:02:42;4.35;;;1.10;;
61709;SDS011;73500;51.494;5.386;2024-02-15T10:05:11;2.55;;;0.90;;
61709;SDS011;73500;51.494;5.386;2024-02-15T10:07:38;5.03;;;1.35;;
61709;SDS011;73500;51.494;5.386;2024-02-15T10:10:24;5.82;;;1.10;;
61709;SDS011;73500;51.494;5.386;2024-02-15T10:12:51;3.60;;;1.15;;
61709;SDS011;73500;51.494;5.386;2024-02-15T10:15:38;9.38;;;1.38;;
61709;SDS011;73500;51.494;5.386;2024-02-15T10:18:08;3.10;;;1.00;;
61709;SDS011;73500;51.494;5.386;2024-02-15T10:20:37;3.70;;;1.00;;
61709;SDS011;73500;51.494;5.386;2024-02-15T10:23:13;4.47;;;1.00;;
61709;SDS011;73500;51.494;5.386;2024-02-15T10:25:42;3.10;;;0.93;;
61709;SDS011;73500;51.494;5.386;2024-02-15T10:28:08;5.53;;;1.20;;
61709;SDS011;73500;51.494;5.386;2024-02-15T10:30:35;6.85;;;1.17;;
61709;SDS011;73500;51.494;5.386;2024-02-15T10:33:03;3.25;;;1.17;;
61709;SDS011;73500;51.494;5.386;2024-02-15T10:35:29;3.97;;;1.08;;
61709;SDS011;73500;51.494;5.386;2024-02-15T10:38:06;6.93;;;1.30;;
61709;SDS011;73500;51.494;5.386;2024-02-15T10:40:33;4.67;;;1.03;;
61709;SDS011;73500;51.494;5.386;2024-02-15T10:42:59;6.13;;;0.88;;
61709;SDS011;73500;51.494;5.386;2024-02-15T10:45:25;4.03;;;1.02;;
61709;SDS011;73500;51.494;5.386;2024-02-15T10:47:50;3.60;;;1.08;;
61709;SDS011;73500;51.494;5.386;2024-02-15T10:50:17;3.33;;;0.98;;
61709;SDS011;73500;51.494;5.386;2024-02-15T10:52:55;3.50;;;1.10;;
61709;SDS011;73500;51.494;5.386;2024-02-15T10:55:27;3.50;;;0.85;;
61709;SDS011;73500;51.494;5.386;2024-02-15T10:57:58;4.35;;;1.10;;
61709;SDS011;73500;51.494;5.386;2024-02-15T11:00:28;3.47;;;1.00;;
61709;SDS011;73500;51.494;5.386;2024-02-15T11:03:00;3.83;;;1.10;;
61709;SDS011;73500;51.494;5.386;2024-02-15T11:05:32;2.65;;;1.13;;
61709;SDS011;73500;51.494;5.386;2024-02-15T11:07:59;3.05;;;1.10;;
61709;SDS011;73500;51.494;5.386;2024-02-15T11:16:44;3.28;;;1.00;;
61709;SDS011;73500;51.494;5.386;2024-02-15T11:19:10;4.40;;;1.10;;
61709;SDS011;73500;51.494;5.386;2024-02-15T11:22:02;3.53;;;0.95;;
61709;SDS011;73500;51.494;5.386;2024-02-15T11:24:35;2.58;;;0.85;;
61709;SDS011;73500;51.494;5.386;2024-02-15T11:27:01;4.45;;;1.10;;
61709;SDS011;73500;51.494;5.386;2024-02-15T11:29:51;3.45;;;0.98;;
61709;SDS011;73500;51.494;5.386;2024-02-15T11:35:14;2.28;;;0.90;;
61709;SDS011;73500;51.494;5.386;2024-02-15T11:42:52;2.33;;;1.10;;
61709;SDS011;73500;51.494;5.386;2024-02-15T11:45:18;3.25;;;1.00;;
61709;SDS011;73500;51.494;5.386;2024-02-15T11:47:46;3.40;;;1.15;;
61709;SDS011;73500;51.494;5.386;2024-02-15T11:50:15;2.92;;;1.00;;
61709;SDS011;73500;51.494;5.386;2024-02-15T11:52:41;3.00;;;0.90;;
61709;SDS011;73500;51.494;5.386;2024-02-15T11:55:11;1.80;;;0.90;;
61709;SDS011;73500;51.494;5.386;2024-02-15T11:57:41;4.80;;;1.10;;
61709;SDS011;73500;51.494;5.386;2024-02-15T12:00:21;4.43;;;1.00;;
61709;SDS011;73500;51.494;5.386;2024-02-15T12:03:08;2.40;;;0.80;;
61709;SDS011;73500;51.494;5.386;2024-02-15T12:05:56;3.75;;;1.15;;
61709;SDS011;73500;51.494;5.386;2024-02-15T12:08:43;4.00;;;1.10;;
61709;SDS011;73500;51.494;5.386;2024-02-15T12:11:27;2.00;;;1.10;;
61709;SDS011;73500;51.494;5.386;2024-02-15T12:14:12;3.22;;;1.10;;
61709;SDS011;73500;51.494;5.386;2024-02-15T12:17:15;3.78;;;1.20;;
61709;SDS011;73500;51.494;5.386;2024-02-15T12:19:59;6.75;;;1.20;;
61709;SDS011;73500;51.494;5.386;2024-02-15T12:22:34;2.38;;;0.80;;
61709;SDS011;73500;51.494;5.386;2024-02-15T12:25:01;2.85;;;0.90;;
61709;SDS011;73500;51.494;5.386;2024-02-15T12:27:37;2.85;;;0.82;;
61709;SDS011;73500;51.494;5.386;2024-02-15T12:30:04;3.63;;;0.93;;
61709;SDS011;73500;51.494;5.386;2024-02-15T12:32:32;2.53;;;0.93;;
61709;SDS011;73500;51.494;5.386;2024-02-15T12:35:10;3.67;;;1.23;;
61709;SDS011;73500;51.494;5.386;2024-02-15T12:37:49;2.85;;;0.82;;
61709;SDS011;73500;51.494;5.386;2024-02-15T12:40:31;4.18;;;0.90;;
61709;SDS011;73500;51.494;5.386;2024-02-15T12:42:57;2.72;;;0.77;;
61709;SDS011;73500;51.494;5.386;2024-02-15T12:45:25;3.25;;;0.85;;
61709;SDS011;73500;51.494;5.386;2024-02-15T12:47:53;3.20;;;1.00;;
61709;SDS011;73500;51.494;5.386;2024-02-15T12:50:20;4.65;;;1.35;;
61709;SDS011;73500;51.494;5.386;2024-02-15T12:52:47;3.45;;;1.08;;
61709;SDS011;73500;51.494;5.386;2024-02-15T12:55:14;2.85;;;0.98;;
61709;SDS011;73500;51.494;5.386;2024-02-15T12:57:45;2.65;;;0.90;;
61709;SDS011;73500;51.494;5.386;2024-02-15T13:00:13;3.10;;;0.82;;
61709;SDS011;73500;51.494;5.386;2024-02-15T13:02:43;4.07;;;0.90;;
61709;SDS011;73500;51.494;5.386;2024-02-15T13:05:09;3.42;;;1.25;;
61709;SDS011;73500;51.494;5.386;2024-02-15T13:07:35;2.50;;;0.80;;
61709;SDS011;73500;51.494;5.386;2024-02-15T13:10:02;4.07;;;0.90;;
61709;SDS011;73500;51.494;5.386;2024-02-15T13:12:28;3.13;;;1.17;;
61709;SDS011;73500;51.494;5.386;2024-02-15T13:14:54;3.28;;;0.90;;
61709;SDS011;73500;51.494;5.386;2024-02-15T13:17:19;2.47;;;1.00;;
61709;SDS011;73500;51.494;5.386;2024-02-15T13:19:45;2.05;;;0.80;;
61709;SDS011;73500;51.494;5.386;2024-02-15T13:22:14;2.13;;;0.75;;
61709;SDS011;73500;51.494;5.386;2024-02-15T13:24:40;3.95;;;0.90;;
61709;SDS011;73500;51.494;5.386;2024-02-15T13:27:07;1.98;;;0.80;;
61709;SDS011;73500;51.494;5.386;2024-02-15T13:29:34;3.08;;;0.90;;
61709;SDS011;73500;51.494;5.386;2024-02-15T13:32:00;3.30;;;1.10;;
61709;SDS011;73500;51.494;5.386;2024-02-15T13:34:25;3.22;;;1.13;;
61709;SDS011;73500;51.494;5.386;2024-02-15T13:36:50;2.50;;;0.83;;
61709;SDS011;73500;51.494;5.386;2024-02-15T13:39:16;2.10;;;0.90;;
61709;SDS011;73500;51.494;5.386;2024-02-15T13:41:43;2.65;;;0.90;;
61709;SDS011;73500;51.494;5.386;2024-02-15T13:44:09;4.15;;;0.90;;
61709;SDS011;73500;51.494;5.386;2024-02-15T13:46:34;3.70;;;1.00;;
61709;SDS011;73500;51.494;5.386;2024-02-15T13:48:59;4.07;;;0.88;;
61709;SDS011;73500;51.494;5.386;2024-02-15T13:51:25;2.55;;;0.95;;
61709;SDS011;73500;51.494;5.386;2024-02-15T13:53:50;2.00;;;0.77;;
61709;SDS011;73500;51.494;5.386;2024-02-15T13:56:16;2.50;;;0.93;;
61709;SDS011;73500;51.494;5.386;2024-02-15T13:58:41;2.65;;;0.85;;
61709;SDS011;73500;51.494;5.386;2024-02-15T14:01:06;2.15;;;0.85;;
61709;SDS011;73500;51.494;5.386;2024-02-15T14:03:32;4.78;;;1.17;;
61709;SDS011;73500;51.494;5.386;2024-02-15T14:05:59;3.05;;;0.90;;
61709;SDS011;73500;51.494;5.386;2024-02-15T14:08:25;4.22;;;0.90;;
61709;SDS011;73500;51.494;5.386;2024-02-15T14:10:50;3.20;;;1.02;;
61709;SDS011;73500;51.494;5.386;2024-02-15T14:13:16;2.65;;;0.90;;
61709;SDS011;73500;51.494;5.386;2024-02-15T14:15:41;2.55;;;0.93;;
61709;SDS011;73500;51.494;5.386;2024-02-15T14:18:08;1.90;;;0.75;;
61709;SDS011;73500;51.494;5.386;2024-02-15T14:20:44;2.20;;;0.95;;
61709;SDS011;73500;51.494;5.386;2024-02-15T14:23:12;2.95;;;0.90;;
61709;SDS011;73500;51.494;5.386;2024-02-15T14:25:40;3.70;;;1.00;;
61709;SDS011;73500;51.494;5.386;2024-02-15T14:28:06;3.75;;;1.02;;
61709;SDS011;73500;51.494;5.386;2024-02-15T14:30:34;2.45;;;0.85;;
61709;SDS011;73500;51.494;5.386;2024-02-15T14:33:19;2.55;;;0.85;;
61709;SDS011;73500;51.494;5.386;2024-02-15T14:35:47;2.33;;;0.90;;
61709;SDS011;73500;51.494;5.386;2024-02-15T14:38:13;3.13;;;1.00;;
61709;SDS011;73500;51.494;5.386;2024-02-15T14:40:44;3.70;;;1.05;;
61709;SDS011;73500;51.494;5.386;2024-02-15T14:43:24;1.98;;;0.77;;
61709;SDS011;73500;51.494;5.386;2024-02-15T14:45:51;2.45;;;0.80;;
61709;SDS011;73500;51.494;5.386;2024-02-15T14:48:17;2.88;;;0.77;;
61709;SDS011;73500;51.494;5.386;2024-02-15T14:50:45;2.08;;;0.75;;
61709;SDS011;73500;51.494;5.386;2024-02-15T14:53:12;2.60;;;0.80;;
61709;SDS011;73500;51.494;5.386;2024-02-15T14:55:38;2.03;;;0.90;;
61709;SDS011;73500;51.494;5.386;2024-02-15T14:58:07;2.70;;;0.80;;
61709;SDS011;73500;51.494;5.386;2024-02-15T15:00:35;2.60;;;0.85;;
61709;SDS011;73500;51.494;5.386;2024-02-15T15:03:02;2.78;;;0.95;;
61709;SDS011;73500;51.494;5.386;2024-02-15T15:05:28;3.25;;;1.05;;
61709;SDS011;73500;51.494;5.386;2024-02-15T15:08:12;4.43;;;0.80;;